Time;durP1;ratioP1;P1;durP2;ratioP2;P2;SDS_P1;SDS_P2;PMS_P1;PMS_P2;Temp;Humidity;BMP_temperature;BMP_pressure;BME280_temperature;BME280_humidity;BME280_pressure;Samples;Min_cycle;Max_cycle;Signal;HPM_P1;HPM_P2
2022/04/26 03:38:29;;;;;;;8.02;5.35;;;;;;;22.10;41.35;98426.31;5034277;28;20032;-67
2022/04/26 03:40:57;;;;;;;9.20;5.03;;;;;;;22.09;41.30;98422.78;5033617;28;20036;-68
2022/04/26 03:43:22;;;;;;;8.00;5.15;;;;;;;22.11;41.26;98430.66;5032575;28;20508;-67
2022/04/26 03:45:48;;;;;;;5.25;4.25;;;;;;;22.10;41.30;98435.22;5032816;28;20032;-68
2022/04/26 03:48:14;;;;;;;7.50;4.85;;;;;;;22.12;41.27;98436.84;5033661;28;20396;-67
2022/04/26 03:50:39;;;;;;;6.78;4.85;;;;;;;22.14;41.27;98442.84;5033874;28;20030;-68
2022/04/26 03:53:05;;;;;;;8.38;5.18;;;;;;;22.15;41.33;98439.94;5033866;28;20033;-68
2022/04/26 03:55:31;;;;;;;7.75;4.63;;;;;;;22.17;41.20;98440.53;5028711;28;20116;-68
2022/04/26 03:57:57;;;;;;;7.07;4.43;;;;;;;22.17;41.19;98437.84;5033512;28;20032;-68
2022/04/26 04:00:23;;;;;;;8.52;3.90;;;;;;;22.19;41.19;98438.44;5033041;28;20408;-68
2022/04/26 04:02:49;;;;;;;6.65;4.75;;;;;;;22.23;41.12;98428.88;5033339;28;20120;-68
2022/04/26 04:05:15;;;;;;;7.47;5.50;;;;;;;22.34;40.96;98431.84;5029140;28;20437;-68
2022/04/26 04:07:40;;;;;;;5.68;4.43;;;;;;;22.47;40.88;98436.31;5033308;28;20119;-68
2022/04/26 04:10:06;;;;;;;7.53;5.55;;;;;;;22.55;40.62;98436.81;5032792;28;20041;-68
2022/04/26 04:12:32;;;;;;;5.85;4.55;;;;;;;22.59;40.57;98430.97;5033333;28;20447;-68
2022/04/26 04:14:57;;;;;;;7.78;5.05;;;;;;;22.61;40.53;98428.88;5032633;28;20037;-69
2022/04/26 04:17:23;;;;;;;6.38;4.70;;;;;;;22.63;40.59;98432.16;5032808;28;20029;-68
2022/04/26 04:19:48;;;;;;;5.47;4.57;;;;;;;22.63;40.62;98438.38;5033587;28;20029;-68
2022/04/26 04:22:16;;;;;;;4.75;4.03;;;;;;;22.59;40.59;98436.34;5015928;28;20038;-67
2022/04/26 04:24:42;;;;;;;6.78;5.18;;;;;;;22.63;40.63;98440.25;5017331;28;20551;-68
2022/04/26 04:27:09;;;;;;;5.18;4.32;;;;;;;22.63;40.70;98440.25;5002694;28;20175;-67
2022/04/26 04:29:34;;;;;;;4.35;3.50;;;;;;;22.69;40.57;98436.66;5032545;28;20087;-67
2022/04/26 04:32:01;;;;;;;6.28;5.03;;;;;;;22.77;40.81;98427.44;5030523;28;20554;-67
2022/04/26 04:34:26;;;;;;;6.55;4.55;;;;;;;22.79;40.47;98430.72;5024264;28;20112;-69
2022/04/26 04:36:52;;;;;;;4.88;4.38;;;;;;;22.85;40.46;98429.81;5032804;28;20120;-68
2022/04/26 04:39:20;;;;;;;4.75;4.05;;;;;;;22.89;40.37;98436.38;5033123;28;20084;-69
2022/04/26 04:41:52;;;;;;;8.23;4.38;;;;;;;22.90;40.19;98437.19;5032218;28;20040;-69
2022/04/26 04:44:18;;;;;;;5.00;3.47;;;;;;;22.91;40.45;98441.53;5030548;28;20492;-68
2022/04/26 04:46:45;;;;;;;5.88;4.78;;;;;;;22.90;40.26;98434.50;5028852;28;20391;-69
2022/04/26 04:49:10;;;;;;;6.25;4.90;;;;;;;22.94;40.10;98446.50;5032444;28;20488;-68
2022/04/26 04:51:36;;;;;;;5.32;3.97;;;;;;;22.99;40.09;98442.06;5023573;28;20044;-69
2022/04/26 04:54:02;;;;;;;4.75;3.70;;;;;;;23.01;40.13;98431.84;5026616;28;20116;-69
2022/04/26 04:56:28;;;;;;;9.52;4.22;;;;;;;23.15;39.98;98435.19;5032382;28;20033;-68
2022/04/26 04:58:54;;;;;;;6.05;4.57;;;;;;;23.23;39.88;98435.94;5032393;28;20032;-69
2022/04/26 05:01:20;;;;;;;4.60;4.03;;;;;;;23.35;40.06;98428.69;5022554;28;20043;-69
2022/04/26 05:03:46;;;;;;;5.05;4.25;;;;;;;23.56;39.85;98435.41;5012737;28;20116;-68
2022/04/26 05:06:14;;;;;;;6.35;4.00;;;;;;;23.68;39.68;98427.34;5012479;28;20076;-67
2022/04/26 05:08:39;;;;;;;6.43;3.92;;;;;;;23.74;39.51;98434.50;5009621;28;20060;-68
2022/04/26 05:11:06;;;;;;;4.90;3.58;;;;;;;23.85;39.61;98424.75;5031739;28;20500;-68
2022/04/26 05:13:31;;;;;;;4.95;3.92;;;;;;;23.96;38.98;98419.59;5031777;28;20061;-68
2022/04/26 05:15:57;;;;;;;7.30;4.13;;;;;;;24.05;39.17;98416.28;5032043;28;20515;-69
2022/04/26 05:18:23;;;;;;;6.18;4.70;;;;;;;24.20;39.10;98412.28;5032217;28;20037;-68
2022/04/26 05:20:48;;;;;;;5.50;4.13;;;;;;;24.34;38.84;98413.66;5031279;28;20041;-68
2022/04/26 05:25:58;;;;;;;4.05;3.33;;;;;;;24.64;38.58;98409.94;5032363;28;20148;-69
2022/04/26 05:28:23;;;;;;;5.03;4.05;;;;;;;24.80;38.29;98413.81;5031802;28;20520;-69
2022/04/26 05:30:51;;;;;;;5.32;4.45;;;;;;;24.87;38.60;98405.53;5031623;28;20088;-69
2022/04/26 05:33:17;;;;;;;4.78;4.20;;;;;;;24.92;38.24;98400.22;5032113;28;20041;-69
2022/04/26 05:35:43;;;;;;;5.53;4.10;;;;;;;24.97;38.19;98400.31;5028857;28;20068;-69
2022/04/26 05:38:08;;;;;;;6.85;4.10;;;;;;;25.03;38.36;98400.41;5031809;28;20033;-69
2022/04/26 05:40:34;;;;;;;5.55;3.78;;;;;;;25.12;38.19;98401.63;5031144;28;20057;-67
2022/04/26 05:42:59;;;;;;;4.18;3.08;;;;;;;25.17;38.18;98392.78;5012845;28;20390;-68
2022/04/26 05:45:27;;;;;;;5.40;3.45;;;;;;;25.22;38.41;98399.09;5012418;28;20092;-68
2022/04/26 05:47:54;;;;;;;6.05;3.45;;;;;;;25.25;38.47;98403.22;5012388;28;20038;-68
2022/04/26 05:50:19;;;;;;;5.82;3.88;;;;;;;25.27;38.42;98399.19;5020034;28;20033;-68
2022/04/26 05:52:45;;;;;;;5.00;3.50;;;;;;;25.31;38.01;98401.41;5017946;28;20120;-68
2022/04/26 05:55:10;;;;;;;4.70;2.90;;;;;;;25.27;38.01;98399.19;5019798;28;20121;-69
2022/04/26 05:57:38;;;;;;;4.43;3.67;;;;;;;25.26;37.77;98402.97;5032100;28;20064;-69
2022/04/26 06:00:06;;;;;;;8.50;3.47;;;;;;;25.19;38.03;98398.78;5031389;28;20026;-69
2022/04/26 06:02:32;;;;;;;7.47;3.95;;;;;;;25.15;38.29;98406.56;5034333;28;20033;-69
2022/04/26 06:04:57;;;;;;;6.05;3.88;;;;;;;25.15;38.32;98403.84;5032304;28;20076;-68
2022/04/26 06:07:23;;;;;;;4.50;3.45;;;;;;;25.12;38.01;98405.19;5020209;28;20029;-69
2022/04/26 06:09:50;;;;;;;3.00;2.22;;;;;;;25.16;37.45;98408.22;5035363;28;20055;-70
2022/04/26 06:12:15;;;;;;;2.55;2.35;;;;;;;25.23;36.75;98414.28;5035144;28;20037;-67
2022/04/26 06:14:41;;;;;;;3.30;2.22;;;;;;;25.34;36.63;98409.06;5033957;28;20041;-67
2022/04/26 06:17:06;;;;;;;2.05;1.60;;;;;;;25.45;36.43;98405.47;5035202;28;20033;-68
2022/04/26 06:19:32;;;;;;;2.90;2.10;;;;;;;25.55;36.21;98400.22;5035060;28;20036;-68
2022/04/26 06:21:57;;;;;;;4.22;1.90;;;;;;;25.64;35.73;98406.03;5035609;28;20164;-68
2022/04/26 06:24:23;;;;;;;4.03;2.00;;;;;;;25.74;35.90;98408.88;5034995;28;20038;-68
2022/04/26 06:26:49;;;;;;;2.88;2.03;;;;;;;25.82;35.84;98410.34;5019580;28;20073;-68
2022/04/26 06:29:14;;;;;;;2.45;1.88;;;;;;;25.90;35.24;98409.09;5035082;28;20110;-68
2022/04/26 06:31:40;;;;;;;5.32;2.22;;;;;;;25.96;35.19;98426.25;5035413;28;20029;-68
2022/04/26 06:34:06;;;;;;;2.97;2.10;;;;;;;26.01;35.15;98423.63;5035294;28;20033;-68
2022/04/26 06:36:31;;;;;;;3.00;2.30;;;;;;;26.03;35.25;98432.34;5033809;28;20048;-68
2022/04/26 06:38:57;;;;;;;3.20;2.13;;;;;;;26.07;35.23;98430.78;5035271;28;20120;-68
2022/04/26 06:41:22;;;;;;;3.33;2.08;;;;;;;26.09;34.94;98431.34;5034649;28;20124;-68
2022/04/26 06:43:48;;;;;;;3.67;1.98;;;;;;;26.11;35.09;98433.84;5017115;28;20132;-68
2022/04/26 06:46:13;;;;;;;1.95;1.70;;;;;;;26.15;34.88;98435.78;5034533;28;20056;-68
2022/04/26 06:48:39;;;;;;;7.72;1.50;;;;;;;26.17;34.76;98430.13;5035065;28;20040;-68
2022/04/26 06:51:04;;;;;;;2.90;2.08;;;;;;;26.18;34.76;98429.03;5003505;28;20453;-68
2022/04/26 06:53:30;;;;;;;2.70;1.63;;;;;;;26.19;34.93;98436.94;5022107;28;20063;-68
2022/04/26 06:55:55;;;;;;;4.40;1.92;;;;;;;26.18;34.94;98427.16;5023801;28;20488;-68
2022/04/26 06:58:21;;;;;;;2.13;1.60;;;;;;;26.21;34.92;98428.53;5033205;28;20465;-69
2022/04/26 07:00:47;;;;;;;3.17;1.98;;;;;;;26.21;34.92;98423.13;5033930;28;20033;-69
2022/04/26 07:03:13;;;;;;;3.15;1.73;;;;;;;26.22;34.75;98429.38;5034414;28;20053;-69
2022/04/26 07:05:41;;;;;;;2.53;1.70;;;;;;;26.22;34.74;98432.91;5033964;28;20508;-68
2022/04/26 07:08:07;;;;;;;1.55;1.30;;;;;;;26.22;34.66;98434.81;5033245;28;20045;-69
2022/04/26 07:10:51;;;;;;;2.65;1.83;;;;;;;26.22;34.75;98441.03;5033596;28;20041;-68
2022/04/26 07:13:20;;;;;;;2.45;1.65;;;;;;;26.22;34.72;98442.94;5034096;28;20037;-69
2022/04/26 07:15:46;;;;;;;3.63;2.00;;;;;;;26.22;34.59;98445.66;5033779;28;20087;-68
2022/04/26 07:18:14;;;;;;;3.15;1.67;;;;;;;26.24;34.38;98440.78;5034403;28;20444;-69
2022/04/26 07:20:40;;;;;;;4.53;1.73;;;;;;;26.26;34.39;98441.34;5034217;28;20034;-68
2022/04/26 07:23:07;;;;;;;4.47;2.10;;;;;;;26.28;34.50;98444.63;5033046;28;20044;-68
2022/04/26 07:25:33;;;;;;;3.00;1.65;;;;;;;26.30;34.35;98445.19;5030149;28;20121;-68
2022/04/26 07:27:59;;;;;;;2.63;1.90;;;;;;;26.33;34.26;98450.94;5014208;28;20034;-68
2022/04/26 07:30:34;;;;;;;2.38;1.63;;;;;;;26.33;34.11;98431.94;5014423;28;20088;-67
2022/04/26 07:35:48;;;;;;;1.90;1.60;;;;;;;26.35;34.01;98437.94;5026243;28;20123;-67
2022/04/26 07:38:13;;;;;;;3.97;2.65;;;;;;;26.35;33.96;98437.94;5033932;28;20044;-67
2022/04/26 07:40:39;;;;;;;4.28;1.80;;;;;;;26.32;33.95;98437.63;5033342;28;20037;-67
2022/04/26 07:43:05;;;;;;;5.22;2.08;;;;;;;26.35;33.72;98435.22;5033831;28;20037;-68
2022/04/26 07:45:31;;;;;;;2.70;2.17;;;;;;;26.37;33.65;98443.13;5027333;28;20034;-67
2022/04/26 07:47:59;;;;;;;5.22;1.60;;;;;;;26.40;33.64;98442.59;5013974;28;20041;-66
2022/04/26 07:50:25;;;;;;;2.63;1.25;;;;;;;26.41;33.80;98438.81;5031295;28;20484;-66
2022/04/26 07:52:50;;;;;;;2.67;1.60;;;;;;;26.42;33.85;98435.03;5033708;28;20037;-67
2022/04/26 07:55:16;;;;;;;2.90;1.75;;;;;;;26.44;33.49;98434.81;5028322;28;20088;-67
2022/04/26 07:57:41;;;;;;;3.28;2.03;;;;;;;26.43;33.27;98442.13;5014017;28;20044;-65
2022/04/26 08:00:07;;;;;;;2.55;1.80;;;;;;;26.41;33.21;98435.31;5021407;28;20083;-66
2022/04/26 08:02:34;;;;;;;3.53;2.08;;;;;;;26.42;33.43;98439.66;5033127;28;20512;-66
2022/04/26 08:05:01;;;;;;;3.42;1.90;;;;;;;26.43;33.50;98442.13;5031758;28;20043;-65
2022/04/26 08:07:31;;;;;;;3.00;1.23;;;;;;;26.50;33.34;98434.63;5017926;28;20021;-67
2022/04/26 08:09:57;;;;;;;2.63;1.80;;;;;;;26.55;33.12;98435.72;5032896;28;20041;-67
2022/04/26 08:12:23;;;;;;;3.47;2.00;;;;;;;26.58;33.31;98433.34;5032937;28;20033;-66
2022/04/26 08:14:48;;;;;;;4.88;2.00;;;;;;;26.62;33.18;98436.38;5032816;28;20095;-67
2022/04/26 08:17:17;;;;;;;2.30;1.50;;;;;;;26.66;33.21;98438.31;5032703;28;20468;-67
2022/04/26 08:19:43;;;;;;;4.85;1.90;;;;;;;26.68;33.02;98431.81;5033268;28;20029;-68
2022/04/26 08:22:08;;;;;;;4.18;2.10;;;;;;;26.68;33.21;98431.81;5033135;28;20041;-67
2022/04/26 08:27:25;;;;;;;3.20;1.50;;;;;;;26.70;33.04;98432.41;5020044;28;20408;-67
2022/04/26 08:29:55;;;;;;;2.47;1.80;;;;;;;26.72;33.03;98432.97;5012889;28;20034;-67
2022/04/26 08:32:22;;;;;;;2.10;1.50;;;;;;;26.75;33.03;98437.88;5013509;28;20385;-67
2022/04/26 08:34:48;;;;;;;4.45;1.85;;;;;;;26.77;32.72;98435.72;5017326;28;20036;-66
2022/04/26 08:37:14;;;;;;;2.75;1.85;;;;;;;26.79;32.57;98442.59;5031002;28;20112;-67
2022/04/26 08:39:40;;;;;;;3.80;1.50;;;;;;;26.84;32.69;98443.72;5031504;28;20116;-67
2022/04/26 08:42:06;;;;;;;6.00;1.30;;;;;;;26.86;32.75;98438.84;5031870;28;20110;-66
2022/04/26 08:44:34;;;;;;;3.60;1.92;;;;;;;26.88;32.48;98442.13;5032621;28;20040;-67
2022/04/26 08:52:44;;;;;;;1.77;1.40;;;;;;;26.96;32.63;98433.53;5032374;28;20056;-66
2022/04/26 08:55:09;;;;;;;4.45;1.52;;;;;;;27.02;32.63;98442.53;5031777;28;20507;-67
2022/04/26 08:57:35;;;;;;;3.45;1.60;;;;;;;27.07;32.47;98435.25;5032495;28;20029;-67
2022/04/26 09:00:05;;;;;;;2.55;1.30;;;;;;;27.10;32.51;98434.75;5032223;28;20030;-67
2022/04/26 09:02:30;;;;;;;4.68;1.17;;;;;;;27.14;32.29;98428.78;5030365;28;20033;-68
2022/04/26 09:05:01;;;;;;;8.30;2.85;;;;;;;27.13;32.03;98430.69;5029214;28;20029;-68
2022/04/26 09:07:32;;;;;;;3.15;2.20;;;;;;;27.02;32.16;98424.34;5022357;28;20057;-68
2022/04/26 09:10:12;;;;;;;3.75;1.92;;;;;;;26.85;32.25;98427.16;5030653;28;20060;-67
2022/04/26 09:12:57;;;;;;;2.65;1.48;;;;;;;26.73;32.15;98421.84;5029056;28;20048;-68
2022/04/26 09:15:22;;;;;;;4.70;2.63;;;;;;;26.69;32.13;98409.84;5029074;28;20037;-68
2022/04/26 09:17:48;;;;;;;3.40;2.13;;;;;;;26.68;32.12;98420.97;5029936;28;20029;-68
2022/04/26 09:20:14;;;;;;;1.70;1.40;;;;;;;26.61;32.33;98416.59;5030388;28;20037;-68
2022/04/26 09:22:39;;;;;;;2.63;1.40;;;;;;;26.57;32.36;98415.44;5031278;28;20496;-68
2022/04/26 09:25:07;;;;;;;4.03;1.77;;;;;;;26.56;32.27;98412.97;5011983;28;20029;-68
2022/04/26 09:27:41;;;;;;;6.07;1.60;;;;;;;26.53;32.49;98419.72;5030477;28;20037;-67
2022/04/26 09:30:12;;;;;;;3.72;1.80;;;;;;;26.51;32.39;98419.16;5032081;28;20495;-68
2022/04/26 09:32:48;;;;;;;2.63;1.77;;;;;;;26.45;32.08;98421.00;5031949;28;20163;-67
2022/04/26 09:35:22;;;;;;;2.95;1.55;;;;;;;26.39;32.29;98416.59;5031294;28;20033;-68
2022/04/26 09:37:47;;;;;;;2.08;1.58;;;;;;;26.29;32.75;98416.44;5035023;28;20029;-68
2022/04/26 09:40:13;;;;;;;11.77;2.22;;;;;;;26.26;32.58;98415.06;5031816;28;20039;-70
2022/04/26 09:42:38;;;;;;;4.05;2.10;;;;;;;26.24;32.87;98410.97;5035081;28;20413;-68
2022/04/26 09:45:09;;;;;;;5.60;1.80;;;;;;;26.20;32.78;98406.03;5033790;28;20059;-66
2022/04/26 09:47:39;;;;;;;3.97;2.28;;;;;;;26.16;32.57;98407.59;5029285;28;20378;-66
2022/04/26 09:50:10;;;;;;;2.50;1.70;;;;;;;26.10;32.84;98418.59;5031239;28;20040;-67
2022/04/26 09:52:36;;;;;;;;;;;;;;;25.96;32.71;98416.25;5031859;28;20109;-67
2022/04/26 09:55:04;;;;;;;3.53;2.22;;;;;;;25.89;32.72;98418.31;5025384;28;19917;-67
2022/04/26 09:57:34;;;;;;;7.60;2.28;;;;;;;25.89;32.60;98411.00;5033666;28;20040;-69
2022/04/26 10:00:01;;;;;;;7.07;2.80;;;;;;;25.87;32.55;98424.00;5031949;28;20052;-68
2022/04/26 10:02:32;;;;;;;4.45;2.97;;;;;;;25.83;32.41;98422.84;5031695;28;20041;-67
2022/04/26 10:05:06;;;;;;;3.47;2.30;;;;;;;25.75;32.87;98420.56;5028810;28;20032;-67
2022/04/26 10:07:44;;;;;;;3.92;2.47;;;;;;;25.77;32.72;98429.25;5034038;28;20082;-67
2022/04/26 10:10:10;;;;;;;4.97;2.80;;;;;;;25.72;32.74;98430.00;5028469;28;20392;-67
2022/04/26 10:12:36;;;;;;;8.20;2.60;;;;;;;25.68;32.63;98426.16;5030791;28;20029;-67
2022/04/26 10:15:03;;;;;;;4.97;2.35;;;;;;;25.68;32.72;98431.56;5034487;28;20186;-66
2022/04/26 10:17:32;;;;;;;7.90;2.72;;;;;;;25.68;32.62;98433.44;5033376;28;20079;-66
2022/04/26 10:20:00;;;;;;;11.55;3.40;;;;;;;25.64;32.88;98432.31;5029061;28;20029;-69
2022/04/26 10:22:52;;;;;;;18.90;4.85;;;;;;;25.61;32.88;98433.59;5021719;28;20033;-66
2022/04/26 10:25:21;;;;;;;10.93;4.63;;;;;;;25.59;32.84;98428.44;5024595;28;20515;-68
2022/04/26 10:28:27;;;;;;;16.35;4.93;;;;;;;25.62;32.86;98437.16;5033744;28;20040;-66
2022/04/26 10:30:55;;;;;;;11.00;4.22;;;;;;;25.59;33.33;98433.03;5032874;28;20037;-67
2022/04/26 10:33:37;;;;;;;12.63;4.15;;;;;;;25.64;33.38;98435.03;5030233;28;20555;-67
2022/04/26 10:36:32;;;;;;;8.60;3.47;;;;;;;25.64;33.24;98429.59;5033947;28;20395;-67
2022/04/26 10:39:12;;;;;;;8.55;3.33;;;;;;;25.64;32.89;98432.31;5029533;28;20384;-67
2022/04/26 10:41:46;;;;;;;7.47;2.83;;;;;;;25.61;33.12;98439.03;5034077;28;20072;-64
2022/04/26 10:44:17;;;;;;;7.40;3.15;;;;;;;25.58;33.24;98436.84;5025970;28;20366;-66
2022/04/26 10:46:45;;;;;;;8.57;3.10;;;;;;;25.53;33.54;98439.44;5033497;28;20041;-68
2022/04/26 10:49:22;;;;;;;6.25;2.53;;;;;;;25.44;32.97;98437.13;5031483;28;20500;-68
2022/04/26 10:51:47;;;;;;;6.05;2.50;;;;;;;25.39;33.16;98441.59;5033826;28;20044;-69
2022/04/26 10:54:13;;;;;;;6.18;2.17;;;;;;;25.38;33.27;98440.81;5035068;28;20041;-68
2022/04/26 10:56:38;;;;;;;6.22;2.55;;;;;;;25.41;33.24;98439.47;5032597;28;20125;-68
2022/04/26 10:59:13;;;;;;;6.95;2.30;;;;;;;25.42;33.37;98433.88;5034390;28;20056;-68
2022/04/26 11:01:41;;;;;;;3.22;2.00;;;;;;;25.36;33.20;98442.13;5032788;28;20037;-68
2022/04/26 11:04:07;;;;;;;6.03;2.47;;;;;;;25.38;33.60;98448.94;5034523;28;20057;-68
2022/04/26 11:06:37;;;;;;;6.15;2.55;;;;;;;25.43;33.43;98438.22;5018857;28;20432;-67
2022/04/26 11:09:10;;;;;;;4.20;1.88;;;;;;;25.48;33.23;98432.06;5031994;28;20103;-68
2022/04/26 11:11:52;;;;;;;4.20;2.08;;;;;;;25.52;33.09;98445.94;5034151;28;20029;-68
2022/04/26 11:14:20;;;;;;;4.80;3.00;;;;;;;25.55;32.85;98451.66;5034139;28;20037;-70
2022/04/26 11:17:00;;;;;;;5.45;2.83;;;;;;;25.53;32.66;98440.25;5034025;28;20138;-70
2022/04/26 11:19:36;;;;;;;4.90;2.00;;;;;;;25.51;32.61;98447.81;5034153;28;20025;-68
2022/04/26 11:22:09;;;;;;;7.57;2.28;;;;;;;25.48;32.69;98445.59;5026153;28;20036;-69
2022/04/26 11:30:07;;;;;;;4.40;1.77;;;;;;;25.28;32.76;98443.34;5033977;28;20156;-69
2022/04/26 11:32:34;;;;;;;3.40;2.00;;;;;;;25.28;32.81;98448.75;5017066;28;20076;-70
2022/04/26 11:35:01;;;;;;;4.00;1.83;;;;;;;25.28;33.00;98446.06;5027940;28;20087;-70
2022/04/26 11:37:27;;;;;;;2.92;1.83;;;;;;;25.29;33.01;98443.09;5033593;28;20112;-69
2022/04/26 11:39:53;;;;;;;4.00;2.10;;;;;;;25.33;33.06;98440.72;5013966;28;20026;-68
2022/04/26 11:42:20;;;;;;;4.40;2.10;;;;;;;25.35;32.82;98438.56;5033142;28;20060;-69
2022/04/26 11:45:01;;;;;;;6.47;1.70;;;;;;;25.38;32.49;98443.50;5032894;28;20029;-69
2022/04/26 11:47:41;;;;;;;2.83;1.73;;;;;;;25.32;32.52;98440.97;5024746;28;20049;-69
2022/04/26 11:50:09;;;;;;;10.07;2.33;;;;;;;25.27;32.69;98434.38;5023646;28;20038;-69
2022/04/26 11:52:34;;;;;;;4.72;1.80;;;;;;;25.29;32.67;98437.69;5016435;28;20171;-68
2022/04/26 11:55:00;;;;;;;6.07;1.88;;;;;;;25.31;32.59;98440.13;5031883;28;20132;-69
2022/04/26 11:57:25;;;;;;;5.25;1.95;;;;;;;25.33;32.13;98435.28;5034121;28;20393;-69
2022/04/26 11:59:51;;;;;;;6.78;2.10;;;;;;;25.29;32.19;98442.28;5032485;28;20484;-68
2022/04/26 12:02:16;;;;;;;3.00;1.92;;;;;;;25.18;31.99;98437.72;5024399;28;20037;-70
2022/04/26 12:04:42;;;;;;;5.20;1.90;;;;;;;25.07;32.22;98428.63;5031008;28;20037;-69
2022/04/26 12:07:08;;;;;;;3.65;1.80;;;;;;;25.03;32.49;98438.28;5015917;28;20488;-70
2022/04/26 12:09:34;;;;;;;3.20;1.92;;;;;;;25.09;32.45;98426.47;5032716;28;20046;-69
2022/04/26 12:12:02;;;;;;;7.38;2.38;;;;;;;25.10;32.09;98430.81;5033588;28;20076;-69
2022/04/26 12:14:27;;;;;;;3.15;1.98;;;;;;;25.09;32.35;98423.78;5033082;28;20518;-69
2022/04/26 12:16:55;;;;;;;3.28;2.10;;;;;;;25.16;32.31;98429.88;5031976;28;20026;-69
2022/04/26 12:19:33;;;;;;;7.15;1.90;;;;;;;25.21;32.18;98432.69;5031975;28;20033;-70
2022/04/26 12:21:59;;;;;;;4.78;2.13;;;;;;;25.16;32.44;98435.28;5033394;28;20033;-70
2022/04/26 12:24:28;;;;;;;5.10;2.15;;;;;;;25.18;32.26;98435.03;5032971;28;20044;-69
2022/04/26 12:27:15;;;;;;;5.40;2.00;;;;;;;25.05;31.61;98433.47;5019234;28;20026;-69
2022/04/26 12:29:43;;;;;;;3.17;1.60;;;;;;;24.97;31.99;98432.78;5013327;28;20038;-69
2022/04/26 12:32:11;;;;;;;8.02;4.03;;;;;;;24.94;32.20;98422.44;5013369;28;20041;-69
2022/04/26 12:34:55;;;;;;;3.78;2.10;;;;;;;24.94;32.02;98430.53;5016355;28;20038;-69
2022/04/26 12:37:23;;;;;;;2.85;1.90;;;;;;;24.90;32.54;98436.69;5013014;28;20052;-70
2022/04/26 12:39:54;;;;;;;5.32;1.80;;;;;;;24.95;32.45;98424.06;5013149;28;20389;-69
2022/04/26 12:42:28;;;;;;;;;;;;;;;24.95;32.28;98434.91;5013950;28;20029;-70
2022/04/26 12:45:00;;;;;;;6.43;1.90;;;;;;;25.05;32.43;98439.69;5014879;28;20007;-70
2022/04/26 12:50:31;;;;;;;4.53;1.92;;;;;;;24.97;32.16;98440.09;5032692;28;20036;-70
2022/04/26 12:53:05;;;;;;;2.70;1.30;;;;;;;25.01;32.16;98437.72;5032610;28;20025;-70
2022/04/26 12:55:34;;;;;;;3.50;1.85;;;;;;;25.05;32.31;98441.59;5025374;28;20091;-70
2022/04/26 12:58:33;;;;;;;6.28;1.88;;;;;;;25.06;32.13;98437.81;5031868;28;20037;-69
2022/04/26 13:00:59;;;;;;;2.85;1.67;;;;;;;25.09;32.41;98432.72;5031805;28;20038;-70
2022/04/26 13:03:24;;;;;;;2.65;1.50;;;;;;;25.16;32.06;98427.16;5032163;28;20053;-70
2022/04/26 13:05:52;;;;;;;2.45;1.80;;;;;;;25.19;31.89;98426.69;5025580;28;20044;-70
2022/04/26 13:08:19;;;;;;;3.25;1.60;;;;;;;25.23;32.04;98429.72;5026221;28;20053;-69
2022/04/26 13:10:47;;;;;;;2.63;1.30;;;;;;;25.22;31.57;98431.56;5028749;28;20029;-69
2022/04/26 13:13:13;;;;;;;4.65;1.92;;;;;;;25.20;31.70;98425.63;5031571;28;20033;-69
2022/04/26 13:15:41;;;;;;;4.63;1.80;;;;;;;25.21;32.28;98426.41;5032443;28;20041;-69
2022/04/26 13:18:07;;;;;;;2.25;1.70;;;;;;;25.27;32.28;98426.25;5032608;28;20056;-69
2022/04/26 13:20:33;;;;;;;3.53;2.10;;;;;;;25.36;32.00;98431.28;5031977;28;20045;-70
2022/04/26 13:22:59;;;;;;;4.93;1.60;;;;;;;25.42;31.63;98423.03;5032512;28;20041;-69
2022/04/26 13:25:25;;;;;;;4.15;1.58;;;;;;;25.46;31.33;98428.78;5028796;28;20408;-69
2022/04/26 13:27:51;;;;;;;3.20;1.35;;;;;;;25.45;31.57;98424.44;5030597;28;20041;-69
2022/04/26 13:30:17;;;;;;;2.85;1.25;;;;;;;25.45;31.19;98429.84;5032340;28;20044;-69
2022/04/26 13:32:43;;;;;;;4.90;1.55;;;;;;;25.42;31.17;98428.44;5032713;28;20470;-68
2022/04/26 13:35:09;;;;;;;2.47;1.20;;;;;;;25.43;31.25;98423.84;5030327;28;20615;-68
2022/04/26 13:37:35;;;;;;;4.43;1.70;;;;;;;25.42;30.83;98430.31;5032715;28;20033;-68
2022/04/26 13:40:02;;;;;;;3.65;1.98;;;;;;;25.40;31.33;98430.56;5029580;28;20033;-68
2022/04/26 13:42:30;;;;;;;6.53;2.55;;;;;;;25.39;31.25;98428.91;5031889;28;20033;-69
2022/04/26 13:44:58;;;;;;;5.53;2.42;;;;;;;25.40;31.11;98432.41;5031511;28;20108;-70
2022/04/26 13:47:24;;;;;;;5.97;3.40;;;;;;;25.36;31.06;98426.69;5031605;28;20412;-70
2022/04/26 13:49:51;;;;;;;17.42;5.55;;;;;;;25.31;31.58;98417.66;5031838;28;20048;-70
2022/04/26 13:52:17;;;;;;;10.05;3.35;;;;;;;25.28;31.12;98419.78;5027010;28;20035;-70
2022/04/26 13:54:43;;;;;;;11.00;4.13;;;;;;;25.24;31.38;98423.22;5030524;28;20124;-69
2022/04/26 13:57:10;;;;;;;7.55;3.40;;;;;;;25.15;31.44;98422.81;5031489;28;20064;-69
2022/04/26 13:59:36;;;;;;;11.43;3.72;;;;;;;25.14;31.50;98424.72;5032135;28;20551;-69
2022/04/26 14:02:03;;;;;;;8.38;3.38;;;;;;;25.17;31.83;98431.50;5030413;28;20064;-69
2022/04/26 14:04:28;;;;;;;8.80;3.05;;;;;;;25.14;31.64;98427.41;5031839;28;20032;-70
2022/04/26 14:06:54;;;;;;;5.78;2.72;;;;;;;25.16;31.75;98418.19;5032389;28;20029;-70
2022/04/26 14:09:21;;;;;;;6.30;2.78;;;;;;;25.15;31.65;98422.81;5031578;28;20140;-70
2022/04/26 14:11:48;;;;;;;5.82;2.78;;;;;;;25.06;31.57;98416.97;5026753;28;20076;-70
2022/04/26 14:22:32;;;;;;;5.50;2.08;;;;;;;24.97;31.38;98419.25;5031639;28;20566;-70
2022/04/26 14:25:04;;;;;;;3.55;1.60;;;;;;;25.02;31.09;98423.13;5033489;28;20040;-70
2022/04/26 14:27:30;;;;;;;4.97;2.45;;;;;;;25.03;31.15;98428.28;5034948;28;20030;-70
2022/04/26 14:29:57;;;;;;;7.15;2.00;;;;;;;25.05;31.47;98418.03;5034275;28;20031;-70
2022/04/26 14:32:23;;;;;;;5.75;1.88;;;;;;;25.09;31.56;98430.03;5034865;28;20488;-69
2022/04/26 14:34:49;;;;;;;5.20;1.80;;;;;;;25.12;31.59;98429.53;5033702;28;20029;-68
2022/04/26 14:37:17;;;;;;;8.15;2.30;;;;;;;25.14;31.63;98426.56;5034990;28;20045;-71
2022/04/26 14:39:43;;;;;;;5.10;1.70;;;;;;;25.14;31.48;98437.41;5034450;28;20037;-70
2022/04/26 14:42:09;;;;;;;3.08;1.40;;;;;;;25.09;30.85;98434.59;5034472;28;20043;-70
2022/04/26 14:44:36;;;;;;;5.97;1.50;;;;;;;24.95;31.02;98432.19;5034784;28;20447;-69
2022/04/26 14:47:04;;;;;;;2.63;1.77;;;;;;;24.89;31.10;98444.00;5034750;28;20441;-68
2022/04/26 14:49:30;;;;;;;4.75;1.42;;;;;;;24.72;31.44;98441.22;5034395;28;20029;-70
2022/04/26 14:51:56;;;;;;;6.53;1.60;;;;;;;24.59;31.30;98436.91;5021855;28;20041;-68
2022/04/26 14:54:22;;;;;;;3.58;1.65;;;;;;;24.57;31.58;98439.00;5034519;28;20041;-68
2022/04/26 14:56:48;;;;;;;3.85;1.35;;;;;;;24.55;31.67;98443.84;5034341;28;20033;-70
2022/04/26 14:59:18;;;;;;;5.97;1.88;;;;;;;24.54;31.68;98439.50;5034411;28;20029;-68
2022/04/26 15:01:46;;;;;;;3.78;1.48;;;;;;;24.55;31.47;98443.03;5025786;28;20396;-68
2022/04/26 15:04:18;;;;;;;4.18;1.55;;;;;;;24.55;31.82;98445.72;5016562;28;20048;-70
2022/04/26 15:06:44;;;;;;;2.03;1.40;;;;;;;24.56;31.69;98444.69;5033658;28;20112;-69
2022/04/26 15:17:24;;;;;;;2.92;1.70;;;;;;;24.46;31.76;98453.41;5024859;28;20099;-68
2022/04/26 15:19:50;;;;;;;7.95;2.33;;;;;;;24.36;31.46;98454.81;5034010;28;20033;-69
2022/04/26 15:22:18;;;;;;;4.20;1.30;;;;;;;24.33;31.27;98447.19;5034534;28;20051;-70
2022/04/26 15:24:48;;;;;;;2.58;1.67;;;;;;;24.34;31.36;98448.81;5033491;28;20499;-70
2022/04/26 15:27:15;;;;;;;3.78;1.67;;;;;;;24.35;31.12;98458.56;5033144;28;20489;-70
2022/04/26 15:29:42;;;;;;;4.78;1.92;;;;;;;24.34;31.06;98448.00;5033846;28;20034;-70
2022/04/26 15:32:08;;;;;;;3.45;1.38;;;;;;;24.39;31.59;98458.94;5034054;28;20439;-70
2022/04/26 15:34:34;;;;;;;2.35;1.10;;;;;;;24.37;30.87;98456.44;5033472;28;20053;-70
2022/04/26 15:37:00;;;;;;;2.47;1.42;;;;;;;24.32;31.47;98447.41;5033275;28;20559;-70
2022/04/26 15:39:26;;;;;;;1.88;1.17;;;;;;;24.29;31.69;98456.00;5032940;28;20043;-70
2022/04/26 15:41:52;;;;;;;4.20;1.40;;;;;;;24.27;31.10;98458.09;5034176;28;20112;-69
2022/04/26 15:44:18;;;;;;;4.20;1.23;;;;;;;24.24;31.59;98454.00;5032793;28;20086;-68
2022/04/26 15:46:45;;;;;;;3.63;1.38;;;;;;;24.20;31.60;98455.53;5026347;28;20037;-70
2022/04/26 15:49:11;;;;;;;9.27;2.50;;;;;;;24.13;31.66;98461.06;5013769;28;20037;-69
2022/04/26 15:51:37;;;;;;;2.03;1.15;;;;;;;24.10;31.69;98464.25;5014226;28;20037;-69
2022/04/26 15:54:03;;;;;;;2.22;1.17;;;;;;;24.12;31.87;98464.00;5013722;28;20037;-70